Metar z połowy godziny Komunikat METAR ze strony awiacja.imgw.pl Metar G30 EPZG METAR EPZG 200330Z 25010KT CAVOK 06/04 Q1017 =